Time;durP1;ratioP1;P1;durP2;ratioP2;P2;SDS_P1;SDS_P2;PMS_P1;PMS_P2;Temp;Humidity;BMP_temperature;BMP_pressure;BME280_temperature;BME280_humidity;BME280_pressure;Samples;Min_cycle;Max_cycle;Signal;HPM_P1;HPM_P2
2021/03/19 00:00:42;;;;;;;;;;;17.60;56.30;;;;;;4924208;29;20399;-85
2021/03/19 00:03:09;;;;;;;;;;;17.60;56.30;;;;;;4910260;29;19970;-85
2021/03/19 00:05:35;;;;;;;;;;;17.50;56.30;;;;;;4908249;29;19934;-85
2021/03/19 00:08:02;;;;;;;;;;;17.50;56.20;;;;;;4904161;29;20226;-84
2021/03/19 00:10:30;;;;;;;;;;;17.60;56.20;;;;;;4906192;29;20025;-85
2021/03/19 00:12:57;;;;;;;;;;;17.60;56.30;;;;;;4910033;29;20388;-84
2021/03/19 00:15:25;;;;;;;;;;;17.60;56.30;;;;;;4903064;29;19934;-84
2021/03/19 00:17:56;;;;;;;;;;;17.60;56.20;;;;;;4909410;29;19938;-84
2021/03/19 00:20:30;;;;;;;;;;;17.50;56.20;;;;;;4905785;29;20479;-84
2021/03/19 00:22:57;;;;;;;;;;;17.50;56.20;;;;;;4905919;29;19951;-84
2021/03/19 00:25:23;;;;;;;;;;;17.50;56.20;;;;;;4925899;29;19954;-84
2021/03/19 00:27:49;;;;;;;;;;;17.50;56.20;;;;;;4910265;29;20462;-83
2021/03/19 00:30:29;;;;;;;;;;;17.50;56.20;;;;;;4897799;29;19928;-84
2021/03/19 00:32:55;;;;;;;;;;;17.50;56.20;;;;;;4912578;29;20289;-83
2021/03/19 00:35:22;;;;;;;;;;;17.50;56.20;;;;;;4895066;29;20038;-83
2021/03/19 00:37:48;;;;;;;;;;;17.50;56.20;;;;;;4913160;29;19927;-84
2021/03/19 00:40:15;;;;;;;;;;;17.50;56.20;;;;;;4913092;29;19934;-84
2021/03/19 00:42:42;;;;;;;;;;;17.40;56.10;;;;;;4898424;29;20183;-84
2021/03/19 00:45:09;;;;;;;;;;;17.40;56.00;;;;;;4898426;29;20021;-84
2021/03/19 00:47:35;;;;;;;;;;;17.40;56.00;;;;;;4898851;29;19915;-84
2021/03/19 00:50:05;;;;;;;;;;;17.50;56.10;;;;;;4913769;29;19960;-83
2021/03/19 00:52:31;;;;;;;;;;;17.40;56.10;;;;;;4912419;29;19933;-84
2021/03/19 00:54:58;;;;;;;;;;;17.40;56.10;;;;;;4912234;29;20396;-85
2021/03/19 00:57:24;;;;;;;;;;;17.40;56.00;;;;;;4897656;29;19973;-84
2021/03/19 00:59:51;;;;;;;;;;;17.40;56.20;;;;;;4913532;29;19974;-84
2021/03/19 01:02:17;;;;;;;;;;;17.40;56.20;;;;;;4911826;29;20388;-85
2021/03/19 01:04:44;;;;;;;;;;;17.40;56.20;;;;;;4911450;29;19994;-85
2021/03/19 01:07:11;;;;;;;;;;;17.40;56.10;;;;;;4914204;29;20026;-85
2021/03/19 01:09:37;;;;;;;;;;;17.40;56.10;;;;;;4899226;29;19915;-84
2021/03/19 01:12:03;;;;;;;;;;;17.40;56.20;;;;;;4898309;29;19931;-85
2021/03/19 01:14:30;;;;;;;;;;;17.40;56.20;;;;;;4912104;29;20332;-84
2021/03/19 01:16:56;;;;;;;;;;;17.30;56.10;;;;;;4907629;29;20337;-84
2021/03/19 01:19:23;;;;;;;;;;;17.30;56.10;;;;;;4909871;29;19987;-84
2021/03/19 01:21:49;;;;;;;;;;;17.30;56.10;;;;;;4912894;29;19934;-84
2021/03/19 01:24:15;;;;;;;;;;;17.30;56.00;;;;;;4892904;29;19961;-84
2021/03/19 01:26:41;;;;;;;;;;;17.30;56.10;;;;;;4912004;29;20101;-84
2021/03/19 01:29:08;;;;;;;;;;;17.30;56.10;;;;;;4918466;29;20148;-85
2021/03/19 01:31:34;;;;;;;;;;;17.30;56.10;;;;;;4912709;29;20006;-85
2021/03/19 01:34:01;;;;;;;;;;;17.30;56.10;;;;;;4904593;29;20451;-84
2021/03/19 01:36:30;;;;;;;;;;;17.30;56.10;;;;;;4901229;29;19931;-84
2021/03/19 01:38:57;;;;;;;;;;;17.30;56.10;;;;;;4900928;29;19974;-85
2021/03/19 01:41:23;;;;;;;;;;;17.30;56.10;;;;;;4902167;29;19983;-84
2021/03/19 01:43:50;;;;;;;;;;;17.30;56.10;;;;;;4903721;29;19951;-85
2021/03/19 01:46:34;;;;;;;;;;;17.30;56.10;;;;;;4898677;29;19950;-84
2021/03/19 01:49:20;;;;;;;;;;;17.30;56.70;;;;;;4902360;29;19928;-83
2021/03/19 01:52:06;;;;;;;;;;;17.30;56.10;;;;;;4904579;29;19927;-83
2021/03/19 01:54:51;;;;;;;;;;;17.30;56.00;;;;;;4902796;29;19943;-83
2021/03/19 01:57:36;;;;;;;;;;;17.20;56.00;;;;;;4901924;29;19951;-83
2021/03/19 02:00:21;;;;;;;;;;;17.20;56.10;;;;;;4924844;29;19978;-83
2021/03/19 02:03:06;;;;;;;;;;;17.20;56.10;;;;;;4906701;29;19927;-84
2021/03/19 02:05:52;;;;;;;;;;;17.20;56.10;;;;;;4928875;29;19986;-83
2021/03/19 02:08:37;;;;;;;;;;;17.20;56.10;;;;;;4900464;29;19994;-84
2021/03/19 02:11:22;;;;;;;;;;;17.20;56.10;;;;;;4904169;29;19935;-84
2021/03/19 02:14:07;;;;;;;;;;;17.20;56.10;;;;;;4923407;29;19927;-84
2021/03/19 02:16:52;;;;;;;;;;;17.20;56.10;;;;;;4899628;29;19935;-85
2021/03/19 02:19:37;;;;;;;;;;;17.20;56.10;;;;;;4902905;29;19931;-84
2021/03/19 02:22:22;;;;;;;;;;;17.20;56.00;;;;;;4901735;29;19927;-85
2021/03/19 02:25:07;;;;;;;;;;;17.20;56.00;;;;;;4908649;29;19934;-85
2021/03/19 02:27:52;;;;;;;;;;;17.10;56.00;;;;;;4907782;29;20010;-85
2021/03/19 02:30:37;;;;;;;;;;;17.20;56.10;;;;;;4906062;29;19931;-85
2021/03/19 02:33:03;;;;;;;;;;;17.10;56.00;;;;;;4900933;29;20627;-84
2021/03/19 02:35:30;;;;;;;;;;;17.10;56.00;;;;;;4904977;29;19927;-85
2021/03/19 02:38:03;;;;;;;;;;;17.10;56.10;;;;;;4908661;29;19974;-85
2021/03/19 02:40:29;;;;;;;;;;;17.10;56.10;;;;;;4907162;29;20011;-83
2021/03/19 02:42:55;;;;;;;;;;;17.10;56.10;;;;;;4902933;29;19931;-84
2021/03/19 02:45:22;;;;;;;;;;;17.10;56.00;;;;;;4905452;29;19937;-87
2021/03/19 02:47:48;;;;;;;;;;;17.10;56.00;;;;;;4909514;29;19934;-85
2021/03/19 02:50:16;;;;;;;;;;;17.00;55.90;;;;;;4900868;29;19963;-84
2021/03/19 02:52:43;;;;;;;;;;;17.00;55.90;;;;;;4900767;29;20014;-84
2021/03/19 02:55:12;;;;;;;;;;;17.00;55.90;;;;;;4908677;29;19935;-84
2021/03/19 02:57:39;;;;;;;;;;;17.00;55.90;;;;;;4913309;29;19975;-85
2021/03/19 03:00:06;;;;;;;;;;;17.00;55.90;;;;;;4907054;29;19986;-85
2021/03/19 03:02:33;;;;;;;;;;;17.10;56.00;;;;;;4920631;28;20029;-84
2021/03/19 03:04:59;;;;;;;;;;;17.00;55.90;;;;;;4901097;29;19927;-84
2021/03/19 03:07:29;;;;;;;;;;;17.00;55.90;;;;;;4905948;29;19934;-85
2021/03/19 03:10:06;;;;;;;;;;;17.00;56.00;;;;;;4927419;29;19935;-84
2021/03/19 03:12:33;;;;;;;;;;;17.00;55.90;;;;;;4897522;29;19932;-85
2021/03/19 03:15:00;;;;;;;;;;;17.00;55.90;;;;;;4907988;29;19927;-84
2021/03/19 03:17:26;;;;;;;;;;;17.00;56.00;;;;;;4901906;29;19963;-83
2021/03/19 03:19:53;;;;;;;;;;;17.00;55.90;;;;;;4899048;29;19931;-84
2021/03/19 03:22:37;;;;;;;;;;;17.00;55.90;;;;;;4899625;29;19934;-84
2021/03/19 03:25:05;;;;;;;;;;;17.00;55.90;;;;;;4892559;29;20392;-84
2021/03/19 03:27:31;;;;;;;;;;;17.00;55.90;;;;;;4907807;29;19934;-84
2021/03/19 03:29:57;;;;;;;;;;;17.00;55.90;;;;;;4907599;29;19921;-84
2021/03/19 03:32:24;;;;;;;;;;;17.00;56.00;;;;;;4918424;29;19934;-84
2021/03/19 03:34:51;;;;;;;;;;;16.90;55.90;;;;;;4905773;29;19942;-84
2021/03/19 03:37:17;;;;;;;;;;;16.90;55.80;;;;;;4906723;29;19931;-83
2021/03/19 03:39:43;;;;;;;;;;;16.90;55.80;;;;;;4902691;29;20022;-83
2021/03/19 03:42:10;;;;;;;;;;;17.00;55.90;;;;;;4928043;29;19927;-84
2021/03/19 03:44:36;;;;;;;;;;;16.90;55.80;;;;;;4902318;29;20007;-84
2021/03/19 03:47:03;;;;;;;;;;;16.90;55.80;;;;;;4907069;29;19927;-84
2021/03/19 03:49:29;;;;;;;;;;;16.90;55.80;;;;;;4903036;29;19950;-84
2021/03/19 03:51:55;;;;;;;;;;;16.90;55.80;;;;;;4900710;29;20395;-84
2021/03/19 03:54:22;;;;;;;;;;;16.80;55.80;;;;;;4898533;29;19928;-84
2021/03/19 03:56:48;;;;;;;;;;;16.90;55.90;;;;;;4903136;29;19927;-84
2021/03/19 03:59:14;;;;;;;;;;;16.90;55.80;;;;;;4897273;29;19928;-83
2021/03/19 04:01:41;;;;;;;;;;;16.90;55.80;;;;;;4908932;29;19931;-83
2021/03/19 04:04:12;;;;;;;;;;;16.90;55.80;;;;;;4901203;29;20397;-83
2021/03/19 04:06:38;;;;;;;;;;;16.90;55.80;;;;;;4904353;29;19927;-83
2021/03/19 04:09:05;;;;;;;;;;;16.90;55.80;;;;;;4903175;29;19974;-84
2021/03/19 04:11:32;;;;;;;;;;;16.80;55.70;;;;;;4927262;29;20129;-84
2021/03/19 04:13:58;;;;;;;;;;;16.80;55.70;;;;;;4903023;29;19927;-84
2021/03/19 04:16:25;;;;;;;;;;;16.80;55.70;;;;;;4898232;29;19987;-84
2021/03/19 04:18:51;;;;;;;;;;;16.80;55.70;;;;;;4905229;29;19927;-83
2021/03/19 04:21:18;;;;;;;;;;;16.80;55.70;;;;;;4906805;29;19991;-84
2021/03/19 04:23:47;;;;;;;;;;;16.80;55.70;;;;;;4900444;29;19927;-84
2021/03/19 04:26:22;;;;;;;;;;;16.80;55.70;;;;;;4903210;29;19931;-84
2021/03/19 04:28:49;;;;;;;;;;;16.80;55.60;;;;;;4893132;29;20021;-85
2021/03/19 04:31:15;;;;;;;;;;;16.80;55.60;;;;;;4919774;29;20022;-85
2021/03/19 04:33:42;;;;;;;;;;;16.80;55.60;;;;;;4903550;29;19928;-85
2021/03/19 04:36:27;;;;;;;;;;;16.80;55.60;;;;;;4913509;29;19927;-85
2021/03/19 04:38:59;;;;;;;;;;;16.70;55.60;;;;;;4916912;29;19974;-84
2021/03/19 04:41:26;;;;;;;;;;;16.70;55.60;;;;;;4909638;29;19914;-84
2021/03/19 04:43:53;;;;;;;;;;;16.80;55.60;;;;;;4906957;29;19938;-84
2021/03/19 04:46:19;;;;;;;;;;;16.80;55.60;;;;;;4902391;29;19968;-84
2021/03/19 04:48:47;;;;;;;;;;;16.70;55.60;;;;;;4900317;29;19935;-83
2021/03/19 04:51:13;;;;;;;;;;;16.80;56.20;;;;;;4919892;29;20490;-86
2021/03/19 04:53:48;;;;;;;;;;;16.80;55.60;;;;;;4899992;29;20319;-85
2021/03/19 04:56:14;;;;;;;;;;;16.70;55.60;;;;;;4905683;29;20307;-84
2021/03/19 04:58:40;;;;;;;;;;;16.70;55.60;;;;;;4899848;29;19939;-82
2021/03/19 05:01:07;;;;;;;;;;;16.70;55.50;;;;;;4902562;29;19927;-93
2021/03/19 05:03:33;;;;;;;;;;;16.70;55.60;;;;;;4910283;29;19931;-84
2021/03/19 05:06:00;;;;;;;;;;;16.70;55.80;;;;;;4910142;29;20128;-84
2021/03/19 05:08:26;;;;;;;;;;;16.70;56.40;;;;;;4904095;29;19934;-84
2021/03/19 05:10:53;;;;;;;;;;;16.70;55.80;;;;;;4907822;29;20030;-84
2021/03/19 05:13:19;;;;;;;;;;;16.70;55.80;;;;;;4905727;29;19971;-84
2021/03/19 05:15:46;;;;;;;;;;;16.70;55.80;;;;;;4908305;29;19995;-85
2021/03/19 05:18:12;;;;;;;;;;;16.70;55.80;;;;;;4908096;29;19993;-84
2021/03/19 05:20:39;;;;;;;;;;;16.70;55.80;;;;;;4904266;29;20292;-85
2021/03/19 05:23:15;;;;;;;;;;;16.70;55.80;;;;;;4908582;29;19934;-84
2021/03/19 05:25:41;;;;;;;;;;;16.70;55.80;;;;;;4905473;29;19927;-85
2021/03/19 05:28:07;;;;;;;;;;;16.60;55.70;;;;;;4902387;29;19926;-84
2021/03/19 05:30:34;;;;;;;;;;;16.70;55.70;;;;;;4907440;29;19931;-84
2021/03/19 05:33:03;;;;;;;;;;;16.60;55.70;;;;;;4908933;29;19927;-84
2021/03/19 05:35:30;;;;;;;;;;;16.60;55.70;;;;;;4903876;29;19990;-84
2021/03/19 05:37:57;;;;;;;;;;;16.60;55.70;;;;;;4908909;29;19990;-83
2021/03/19 05:40:38;;;;;;;;;;;16.60;55.70;;;;;;4911859;29;19994;-84
2021/03/19 05:43:21;;;;;;;;;;;16.60;55.70;;;;;;4907684;29;20017;-80
2021/03/19 05:45:56;;;;;;;;;;;16.60;55.70;;;;;;4909520;29;19949;-82
2021/03/19 05:48:24;;;;;;;;;;;16.60;55.70;;;;;;4908472;29;19931;-82
2021/03/19 05:50:50;;;;;;;;;;;16.60;55.70;;;;;;4908689;29;19942;-81
2021/03/19 05:53:19;;;;;;;;;;;16.60;55.70;;;;;;4906634;29;19935;-83
2021/03/19 05:55:46;;;;;;;;;;;16.60;55.60;;;;;;4910806;29;19927;-85
2021/03/19 05:58:26;;;;;;;;;;;16.60;55.70;;;;;;4906262;29;19928;-85
2021/03/19 06:00:56;;;;;;;;;;;16.60;55.70;;;;;;4905548;29;19927;-83
2021/03/19 06:03:23;;;;;;;;;;;16.60;55.70;;;;;;4910424;29;20069;-83
2021/03/19 06:05:59;;;;;;;;;;;16.50;55.70;;;;;;4911388;29;19915;-85
2021/03/19 06:08:26;;;;;;;;;;;16.60;55.70;;;;;;4916823;29;19969;-82
2021/03/19 06:11:02;;;;;;;;;;;16.60;56.50;;;;;;4910749;29;20384;-83
2021/03/19 06:13:41;;;;;;;;;;;16.60;57.00;;;;;;4909582;29;19927;-86
2021/03/19 06:16:26;;;;;;;;;;;16.70;57.50;;;;;;4912259;29;19954;-82
2021/03/19 06:19:04;;;;;;;;;;;16.80;57.80;;;;;;4911567;29;19943;-95
2021/03/19 06:21:32;;;;;;;;;;;16.90;57.70;;;;;;4920633;29;19942;-84
2021/03/19 06:24:10;;;;;;;;;;;17.00;57.50;;;;;;4911861;29;19915;-89
2021/03/19 06:26:39;;;;;;;;;;;17.00;57.50;;;;;;4925040;29;19967;-88
2021/03/19 06:29:10;;;;;;;;;;;17.10;57.20;;;;;;4906773;29;19927;-84
2021/03/19 06:31:39;;;;;;;;;;;17.20;57.10;;;;;;4921130;29;19951;-85
2021/03/19 06:34:08;;;;;;;;;;;17.20;57.10;;;;;;4909977;29;20346;-84
2021/03/19 06:36:50;;;;;;;;;;;17.10;56.50;;;;;;4910157;29;19935;-86
2021/03/19 06:39:25;;;;;;;;;;;17.10;57.30;;;;;;4924611;29;19934;-90
2021/03/19 06:42:00;;;;;;;;;;;17.20;57.00;;;;;;4910930;29;19958;-93
2021/03/19 06:44:35;;;;;;;;;;;17.20;57.80;;;;;;4928779;29;19927;-94
2021/03/19 06:47:07;;;;;;;;;;;17.20;57.20;;;;;;4908045;29;19956;-93
2021/03/19 06:49:53;;;;;;;;;;;17.10;56.90;;;;;;4905466;29;19931;-95
2021/03/19 06:52:24;;;;;;;;;;;17.10;56.70;;;;;;4917648;29;19938;-88
2021/03/19 06:54:50;;;;;;;;;;;17.10;56.40;;;;;;4912745;29;19990;-87
2021/03/19 06:57:20;;;;;;;;;;;17.10;56.70;;;;;;4906975;29;19927;-79
2021/03/19 06:59:47;;;;;;;;;;;17.10;56.90;;;;;;4909099;29;19927;-81
2021/03/19 07:02:31;;;;;;;;;;;17.10;56.70;;;;;;4900868;29;19931;-82
2021/03/19 07:05:02;;;;;;;;;;;17.10;56.50;;;;;;4906321;29;19927;-83
2021/03/19 07:07:46;;;;;;;;;;;17.00;56.40;;;;;;4908081;29;19934;-83
2021/03/19 07:10:27;;;;;;;;;;;17.00;56.20;;;;;;4908117;29;20481;-83
2021/03/19 07:12:59;;;;;;;;;;;17.00;56.20;;;;;;4903049;29;19942;-83
2021/03/19 07:15:29;;;;;;;;;;;17.00;56.10;;;;;;4907916;29;19937;-84
2021/03/19 07:17:59;;;;;;;;;;;17.00;56.00;;;;;;4905888;29;19938;-83
2021/03/19 07:20:25;;;;;;;;;;;17.00;56.00;;;;;;4907791;29;19935;-84
2021/03/19 07:22:51;;;;;;;;;;;16.90;55.80;;;;;;4908129;29;19938;-84
2021/03/19 07:25:45;;;;;;;;;;;17.00;55.90;;;;;;4905978;29;19935;-84
2021/03/19 07:28:30;;;;;;;;;;;16.90;55.60;;;;;;4922407;29;19931;-83
2021/03/19 07:30:56;;;;;;;;;;;16.90;55.50;;;;;;4905397;29;19934;-82
2021/03/19 07:33:23;;;;;;;;;;;16.90;55.50;;;;;;4921753;29;19941;-83
2021/03/19 07:36:08;;;;;;;;;;;16.90;55.40;;;;;;4905323;29;19936;-83
2021/03/19 07:38:42;;;;;;;;;;;16.90;55.50;;;;;;4906059;29;19942;-82
2021/03/19 07:41:12;;;;;;;;;;;16.90;55.50;;;;;;4908903;29;19961;-82
2021/03/19 07:43:50;;;;;;;;;;;16.80;55.40;;;;;;4904920;29;19957;-83
2021/03/19 07:46:35;;;;;;;;;;;16.80;55.50;;;;;;4922570;28;20479;-83
2021/03/19 07:49:22;;;;;;;;;;;16.80;56.00;;;;;;4901251;29;19927;-83
2021/03/19 07:51:48;;;;;;;;;;;16.80;55.30;;;;;;4907561;29;19958;-83
2021/03/19 07:54:24;;;;;;;;;;;16.80;55.30;;;;;;4904253;29;20436;-82
2021/03/19 07:56:56;;;;;;;;;;;16.80;55.20;;;;;;4908977;29;19995;-83
2021/03/19 07:59:22;;;;;;;;;;;16.80;55.10;;;;;;4913399;29;19934;-83
2021/03/19 08:02:07;;;;;;;;;;;16.80;55.70;;;;;;4898751;29;19932;-84
2021/03/19 08:04:37;;;;;;;;;;;16.80;55.10;;;;;;4897764;29;19939;-84
2021/03/19 08:07:13;;;;;;;;;;;16.70;54.90;;;;;;4895354;29;19931;-84
2021/03/19 08:09:44;;;;;;;;;;;16.70;55.60;;;;;;4907926;29;19927;-84
2021/03/19 08:12:17;;;;;;;;;;;16.70;54.90;;;;;;4918967;29;19939;-84
2021/03/19 08:15:05;;;;;;;;;;;16.70;54.90;;;;;;4905617;29;19962;-84
2021/03/19 08:17:36;;;;;;;;;;;16.70;54.90;;;;;;4907834;29;20070;-84
2021/03/19 08:20:13;;;;;;;;;;;16.80;54.90;;;;;;4897637;29;20058;-84
2021/03/19 08:23:02;;;;;;;;;;;16.70;54.60;;;;;;4900589;29;19931;-84
2021/03/19 08:25:33;;;;;;;;;;;16.70;54.50;;;;;;4893870;29;19967;-84
2021/03/19 08:28:18;;;;;;;;;;;16.70;54.30;;;;;;4902641;29;19927;-84
2021/03/19 08:31:01;;;;;;;;;;;16.70;54.50;;;;;;4902501;29;19935;-84
2021/03/19 08:33:39;;;;;;;;;;;16.70;54.50;;;;;;4895647;29;19933;-84
2021/03/19 08:36:25;;;;;;;;;;;16.70;54.50;;;;;;4910072;29;19954;-84
2021/03/19 08:38:53;;;;;;;;;;;16.70;54.60;;;;;;4916105;29;19928;-84
2021/03/19 08:41:29;;;;;;;;;;;16.70;54.50;;;;;;4908343;29;20659;-85
2021/03/19 08:43:58;;;;;;;;;;;16.70;54.30;;;;;;4907492;29;19943;-85
2021/03/19 08:46:46;;;;;;;;;;;16.70;54.40;;;;;;4905216;29;20090;-84
2021/03/19 08:49:13;;;;;;;;;;;16.70;54.40;;;;;;4900853;29;19927;-84
2021/03/19 08:51:44;;;;;;;;;;;16.70;54.50;;;;;;4904086;29;19927;-84
2021/03/19 08:54:13;;;;;;;;;;;16.70;54.50;;;;;;4898330;29;19927;-85
2021/03/19 08:56:55;;;;;;;;;;;16.70;54.50;;;;;;4910315;29;20418;-84
2021/03/19 08:59:36;;;;;;;;;;;16.60;54.50;;;;;;4901347;29;19934;-84
2021/03/19 09:02:29;;;;;;;;;;;16.70;54.40;;;;;;4903387;29;19930;-82
2021/03/19 09:04:55;;;;;;;;;;;16.60;54.30;;;;;;4910541;29;19986;-83
2021/03/19 09:07:36;;;;;;;;;;;16.60;54.40;;;;;;4898757;29;19954;-83
2021/03/19 09:10:18;;;;;;;;;;;16.70;54.40;;;;;;4906321;29;20384;-83
2021/03/19 09:12:56;;;;;;;;;;;16.70;54.50;;;;;;4909111;29;19931;-83
2021/03/19 09:15:31;;;;;;;;;;;16.60;54.40;;;;;;4901943;29;19926;-84
2021/03/19 09:18:02;;;;;;;;;;;16.70;54.40;;;;;;4913975;29;19927;-84
2021/03/19 09:20:29;;;;;;;;;;;16.70;54.40;;;;;;4912879;29;19934;-85
2021/03/19 09:23:03;;;;;;;;;;;16.60;54.90;;;;;;4906074;29;19930;-85
2021/03/19 09:25:38;;;;;;;;;;;16.70;54.40;;;;;;4904361;29;20481;-85
2021/03/19 09:28:13;;;;;;;;;;;16.70;54.40;;;;;;4917767;29;19927;-85
2021/03/19 09:30:42;;;;;;;;;;;16.70;54.30;;;;;;4908052;29;19990;-85
2021/03/19 09:33:10;;;;;;;;;;;16.70;54.00;;;;;;4906666;29;20033;-85
2021/03/19 09:35:39;;;;;;;;;;;16.70;54.10;;;;;;4904501;29;19927;-85
2021/03/19 09:38:23;;;;;;;;;;;16.70;54.10;;;;;;4913756;29;20471;-85
2021/03/19 09:40:54;;;;;;;;;;;16.70;54.20;;;;;;4907407;29;19927;-85
2021/03/19 09:43:39;;;;;;;;;;;16.70;54.10;;;;;;4908422;29;20383;-85
2021/03/19 09:46:18;;;;;;;;;;;16.70;53.90;;;;;;4905217;29;20064;-85
2021/03/19 09:49:03;;;;;;;;;;;16.70;53.90;;;;;;4908611;29;19959;-85
2021/03/19 09:51:45;;;;;;;;;;;16.70;53.90;;;;;;4908739;29;19928;-86
2021/03/19 09:54:19;;;;;;;;;;;16.70;54.10;;;;;;4908591;29;19949;-85
2021/03/19 09:56:54;;;;;;;;;;;16.70;54.10;;;;;;4905924;29;19954;-85
2021/03/19 09:59:23;;;;;;;;;;;16.70;54.20;;;;;;4906927;29;19927;-85
2021/03/19 10:01:49;;;;;;;;;;;16.70;54.10;;;;;;4909349;29;19931;-85
2021/03/19 10:04:34;;;;;;;;;;;16.70;54.30;;;;;;4919345;29;19936;-86
2021/03/19 10:07:04;;;;;;;;;;;16.70;54.30;;;;;;4902993;29;19938;-85
2021/03/19 10:09:47;;;;;;;;;;;16.70;54.20;;;;;;4905099;29;19985;-84
2021/03/19 10:12:21;;;;;;;;;;;16.70;54.10;;;;;;4907615;29;19938;-85
2021/03/19 10:14:49;;;;;;;;;;;16.70;54.10;;;;;;4926284;29;19945;-85
2021/03/19 10:17:23;;;;;;;;;;;16.70;54.30;;;;;;4908760;29;20014;-85
2021/03/19 10:20:10;;;;;;;;;;;16.70;54.30;;;;;;4909944;29;19995;-85
2021/03/19 10:22:38;;;;;;;;;;;16.70;54.20;;;;;;4908653;29;19934;-86
2021/03/19 10:25:14;;;;;;;;;;;16.80;54.00;;;;;;4909850;29;19934;-86
2021/03/19 10:27:53;;;;;;;;;;;16.70;53.80;;;;;;4906428;29;19982;-85
2021/03/19 10:30:38;;;;;;;;;;;16.70;53.90;;;;;;4903805;29;19934;-85
2021/03/19 10:33:15;;;;;;;;;;;16.80;54.10;;;;;;4907527;29;19942;-85
2021/03/19 10:35:46;;;;;;;;;;;16.70;54.10;;;;;;4910260;29;19931;-84
2021/03/19 10:38:18;;;;;;;;;;;16.70;54.00;;;;;;4906937;29;19967;-84
2021/03/19 10:40:58;;;;;;;;;;;16.80;54.20;;;;;;4908018;29;19927;-84
2021/03/19 10:43:32;;;;;;;;;;;16.80;54.30;;;;;;4924686;29;20030;-85
2021/03/19 10:46:11;;;;;;;;;;;16.80;54.30;;;;;;4904172;29;20046;-84
2021/03/19 10:49:03;;;;;;;;;;;16.80;54.30;;;;;;4906821;29;19990;-84
2021/03/19 10:51:45;;;;;;;;;;;16.80;54.40;;;;;;4907127;29;19938;-84
2021/03/19 10:54:17;;;;;;;;;;;16.80;54.60;;;;;;4908439;29;19915;-85
2021/03/19 10:57:09;;;;;;;;;;;16.80;54.30;;;;;;4905886;29;19943;-85
2021/03/19 10:59:36;;;;;;;;;;;16.80;54.50;;;;;;4903078;29;19934;-85
2021/03/19 11:02:12;;;;;;;;;;;16.80;54.40;;;;;;4904811;29;19967;-85
2021/03/19 11:04:38;;;;;;;;;;;16.80;54.40;;;;;;4912098;29;19971;-85
2021/03/19 11:07:26;;;;;;;;;;;16.90;54.50;;;;;;4903928;29;19927;-82
2021/03/19 11:09:59;;;;;;;;;;;16.90;54.40;;;;;;4905775;29;19995;-83
2021/03/19 11:12:29;;;;;;;;;;;16.90;54.50;;;;;;4906173;29;20427;-84
2021/03/19 11:15:04;;;;;;;;;;;16.90;54.50;;;;;;4908229;29;19926;-85
2021/03/19 11:17:30;;;;;;;;;;;16.90;54.40;;;;;;4908382;29;19935;-86
2021/03/19 11:20:01;;;;;;;;;;;16.90;54.40;;;;;;4909254;29;19934;-85
2021/03/19 11:22:39;;;;;;;;;;;16.90;54.40;;;;;;4907468;29;19927;-85
2021/03/19 11:25:23;;;;;;;;;;;16.90;54.30;;;;;;4908812;29;20451;-84
2021/03/19 11:27:50;;;;;;;;;;;17.00;55.10;;;;;;4906139;29;19935;-90
2021/03/19 11:30:22;;;;;;;;;;;17.00;54.80;;;;;;4909022;29;20305;-85
2021/03/19 11:33:01;;;;;;;;;;;17.00;54.60;;;;;;4900590;29;20070;-88
2021/03/19 11:35:27;;;;;;;;;;;17.00;54.50;;;;;;4904845;29;19939;-85
2021/03/19 11:37:54;;;;;;;;;;;17.00;54.50;;;;;;4904218;29;20601;-87
2021/03/19 11:40:20;;;;;;;;;;;17.00;54.60;;;;;;4911761;29;19946;-86
2021/03/19 11:42:49;;;;;;;;;;;17.00;54.60;;;;;;4909467;29;19927;-86
2021/03/19 11:45:16;;;;;;;;;;;17.00;54.50;;;;;;4905736;29;19927;-87
2021/03/19 11:47:56;;;;;;;;;;;17.10;54.60;;;;;;4908834;29;19927;-86
2021/03/19 11:50:36;;;;;;;;;;;17.00;54.80;;;;;;4907177;29;20407;-87
2021/03/19 11:53:16;;;;;;;;;;;17.10;54.70;;;;;;4903330;29;20443;-87
2021/03/19 11:55:44;;;;;;;;;;;17.10;54.60;;;;;;4900984;29;20094;-84
2021/03/19 11:58:11;;;;;;;;;;;17.10;54.60;;;;;;4901706;29;19931;-87
2021/03/19 12:00:42;;;;;;;;;;;17.10;54.50;;;;;;4904690;29;20328;-88
2021/03/19 12:03:16;;;;;;;;;;;17.10;54.40;;;;;;4923902;29;19969;-96
2021/03/19 12:05:43;;;;;;;;;;;17.30;55.30;;;;;;4906447;29;19923;-92
2021/03/19 12:08:10;;;;;;;;;;;17.50;54.90;;;;;;4898505;29;19915;-94
2021/03/19 12:10:37;;;;;;;;;;;17.70;54.80;;;;;;4906304;29;19955;-96
2021/03/19 12:13:07;;;;;;;;;;;18.40;53.60;;;;;;4926451;29;20394;-91
2021/03/19 12:15:34;;;;;;;;;;;19.00;52.10;;;;;;4904985;29;20303;-91
2021/03/19 12:18:02;;;;;;;;;;;19.60;50.90;;;;;;4898029;29;20015;-89
2021/03/19 12:20:31;;;;;;;;;;;20.00;49.80;;;;;;4907862;29;19954;-85
2021/03/19 12:22:58;;;;;;;;;;;20.40;49.10;;;;;;4907652;29;19958;-84
2021/03/19 12:25:25;;;;;;;;;;;20.70;48.50;;;;;;4906083;29;19942;-84
2021/03/19 12:27:52;;;;;;;;;;;20.90;48.30;;;;;;4905660;29;19940;-94
2021/03/19 12:30:37;;;;;;;;;;;21.00;47.90;;;;;;4900290;29;20337;-89
2021/03/19 12:33:06;;;;;;;;;;;21.30;47.50;;;;;;4900651;29;19950;-84
2021/03/19 12:35:42;;;;;;;;;;;;;;;;;;;;;
2021/03/19 12:38:40;;;;;;;;;;;21.60;47.10;;;;;;4902261;29;19923;-89
2021/03/19 12:41:07;;;;;;;;;;;22.00;46.80;;;;;;4926135;29;20055;-92
2021/03/19 12:43:39;;;;;;;;;;;22.20;46.40;;;;;;4907933;29;19965;-90
2021/03/19 12:46:06;;;;;;;;;;;22.40;46.10;;;;;;4928982;23;19966;-95
2021/03/19 12:48:33;;;;;;;;;;;22.60;45.80;;;;;;4876315;29;19935;-91
2021/03/19 12:51:00;;;;;;;;;;;22.70;45.50;;;;;;4892089;29;19994;-94
2021/03/19 12:53:34;;;;;;;;;;;22.90;45.50;;;;;;4896272;29;19927;-89
2021/03/19 12:56:04;;;;;;;;;;;23.10;45.20;;;;;;4893708;29;19927;-93
2021/03/19 12:58:30;;;;;;;;;;;23.30;45.00;;;;;;4897412;29;19943;-88
2021/03/19 13:00:57;;;;;;;;;;;23.40;44.30;;;;;;4909168;29;19928;-87
2021/03/19 13:03:26;;;;;;;;;;;23.50;44.40;;;;;;4906623;29;19927;-90
2021/03/19 13:05:53;;;;;;;;;;;23.70;44.10;;;;;;4891662;29;19935;-90
2021/03/19 13:08:20;;;;;;;;;;;23.80;43.90;;;;;;4903936;23;19927;-90
2021/03/19 13:10:46;;;;;;;;;;;23.90;43.80;;;;;;4898106;23;19928;-91
2021/03/19 13:13:13;;;;;;;;;;;24.10;43.60;;;;;;4890117;23;19999;-86
2021/03/19 13:15:39;;;;;;;;;;;23.90;42.70;;;;;;4873056;29;19934;-92
2021/03/19 13:18:07;;;;;;;;;;;23.40;43.70;;;;;;4871673;29;19928;-94
2021/03/19 13:20:34;;;;;;;;;;;23.80;44.00;;;;;;4874540;29;19935;-95
2021/03/19 13:23:02;;;;;;;;;;;24.20;43.70;;;;;;4873160;29;19959;-90
2021/03/19 13:25:30;;;;;;;;;;;24.40;43.70;;;;;;4855589;29;19927;-84
2021/03/19 13:27:57;;;;;;;;;;;24.40;43.50;;;;;;4869047;29;19975;-86
2021/03/19 13:30:39;;;;;;;;;;;24.50;43.40;;;;;;4917695;23;19927;-94
2021/03/19 13:33:06;;;;;;;;;;;24.70;43.10;;;;;;4922078;29;20593;-82
2021/03/19 13:35:35;;;;;;;;;;;24.80;43.30;;;;;;4933969;29;19951;-85
2021/03/19 13:38:20;;;;;;;;;;;24.90;43.10;;;;;;4896687;23;19984;-86
2021/03/19 13:40:54;;;;;;;;;;;25.00;43.20;;;;;;4887289;29;20465;-88
2021/03/19 13:43:25;;;;;;;;;;;25.20;43.00;;;;;;4871249;29;19928;-84
2021/03/19 13:45:52;;;;;;;;;;;25.30;42.70;;;;;;4871448;29;19963;-84
2021/03/19 13:48:22;;;;;;;;;;;25.40;42.80;;;;;;4881434;29;20507;-85
2021/03/19 13:50:50;;;;;;;;;;;25.50;42.70;;;;;;4882191;29;20285;-90
2021/03/19 13:53:17;;;;;;;;;;;25.50;42.50;;;;;;4875646;29;20330;-93
2021/03/19 13:55:44;;;;;;;;;;;25.60;43.10;;;;;;4878824;29;20629;-93
2021/03/19 13:58:27;;;;;;;;;;;25.70;42.30;;;;;;4873588;29;20291;-89
2021/03/19 14:00:55;;;;;;;;;;;25.70;42.30;;;;;;4884669;23;19927;-87
2021/03/19 14:03:23;;;;;;;;;;;25.10;44.30;;;;;;4883014;29;19949;-87
2021/03/19 14:06:08;;;;;;;;;;;24.60;44.90;;;;;;4890064;29;19935;-87
2021/03/19 14:08:36;;;;;;;;;;;24.20;45.80;;;;;;4874073;29;19928;-93
2021/03/19 14:11:05;;;;;;;;;;;24.00;45.40;;;;;;4891781;29;19943;-93
2021/03/19 14:13:31;;;;;;;;;;;23.30;44.90;;;;;;4871552;29;19950;-90
2021/03/19 14:15:58;;;;;;;;;;;22.90;45.60;;;;;;4882868;29;20564;-90
2021/03/19 14:18:25;;;;;;;;;;;22.60;46.10;;;;;;4889731;29;19934;-88
2021/03/19 14:20:52;;;;;;;;;;;22.40;46.40;;;;;;4889658;29;19927;-87
2021/03/19 14:23:19;;;;;;;;;;;22.30;46.70;;;;;;4886910;29;19923;-88
2021/03/19 14:25:46;;;;;;;;;;;22.10;46.90;;;;;;4866413;29;19942;-94
2021/03/19 14:28:17;;;;;;;;;;;22.00;47.00;;;;;;4894851;29;19929;-90
2021/03/19 14:30:46;;;;;;;;;;;22.00;47.30;;;;;;4894875;29;19942;-91
2021/03/19 14:33:12;;;;;;;;;;;21.90;47.60;;;;;;4878133;29;19927;-94
2021/03/19 14:35:39;;;;;;;;;;;21.80;47.70;;;;;;4876735;29;20582;-94
2021/03/19 14:38:07;;;;;;;;;;;21.70;47.00;;;;;;4880956;29;19934;-92
2021/03/19 14:40:35;;;;;;;;;;;21.70;48.10;;;;;;4869713;29;19932;-91
2021/03/19 14:43:03;;;;;;;;;;;21.60;48.50;;;;;;4884405;29;21408;-91
2021/03/19 14:45:29;;;;;;;;;;;21.60;48.50;;;;;;4890660;29;19924;-90